sensor_id;sensor_type;location;lat;lon;timestamp;P1;durP1;ratioP1;P2;durP2;ratioP2
74632;SDS011;63139;52.018;8.552;2024-03-02T00:00:42;9.77;;;6.80;;
74632;SDS011;63139;52.018;8.552;2024-03-02T00:03:10;9.73;;;6.82;;
74632;SDS011;63139;52.018;8.552;2024-03-02T00:05:40;9.07;;;6.40;;
74632;SDS011;63139;52.018;8.552;2024-03-02T00:08:09;11.95;;;7.47;;
74632;SDS011;63139;52.018;8.552;2024-03-02T00:10:37;9.18;;;6.90;;
74632;SDS011;63139;52.018;8.552;2024-03-02T00:13:07;9.90;;;7.05;;
74632;SDS011;63139;52.018;8.552;2024-03-02T00:15:45;9.30;;;6.35;;
74632;SDS011;63139;52.018;8.552;2024-03-02T00:18:16;10.95;;;6.93;;
74632;SDS011;63139;52.018;8.552;2024-03-02T00:20:47;9.23;;;6.50;;
74632;SDS011;63139;52.018;8.552;2024-03-02T00:23:15;9.60;;;6.78;;
74632;SDS011;63139;52.018;8.552;2024-03-02T00:25:47;10.85;;;7.60;;
74632;SDS011;63139;52.018;8.552;2024-03-02T00:28:16;9.93;;;7.57;;
74632;SDS011;63139;52.018;8.552;2024-03-02T00:30:57;10.35;;;6.60;;
74632;SDS011;63139;52.018;8.552;2024-03-02T00:33:27;8.88;;;6.25;;
74632;SDS011;63139;52.018;8.552;2024-03-02T00:35:57;9.50;;;7.20;;
74632;SDS011;63139;52.018;8.552;2024-03-02T00:38:26;11.05;;;7.63;;
74632;SDS011;63139;52.018;8.552;2024-03-02T00:40:55;8.88;;;6.55;;
74632;SDS011;63139;52.018;8.552;2024-03-02T00:46:15;12.07;;;7.28;;
74632;SDS011;63139;52.018;8.552;2024-03-02T00:48:54;10.05;;;6.35;;
74632;SDS011;63139;52.018;8.552;2024-03-02T00:51:24;12.48;;;7.55;;
74632;SDS011;63139;52.018;8.552;2024-03-02T00:53:54;10.10;;;7.03;;
74632;SDS011;63139;52.018;8.552;2024-03-02T00:56:24;11.63;;;7.70;;
74632;SDS011;63139;52.018;8.552;2024-03-02T00:58:52;10.50;;;7.05;;
74632;SDS011;63139;52.018;8.552;2024-03-02T01:01:22;9.57;;;6.78;;
74632;SDS011;63139;52.018;8.552;2024-03-02T01:03:50;11.65;;;7.70;;
74632;SDS011;63139;52.018;8.552;2024-03-02T01:06:20;8.70;;;6.65;;
74632;SDS011;63139;52.018;8.552;2024-03-02T01:08:49;10.52;;;7.20;;
74632;SDS011;63139;52.018;8.552;2024-03-02T01:11:19;9.00;;;6.82;;
74632;SDS011;63139;52.018;8.552;2024-03-02T01:13:49;8.20;;;6.50;;
74632;SDS011;63139;52.018;8.552;2024-03-02T01:16:18;7.78;;;6.03;;
74632;SDS011;63139;52.018;8.552;2024-03-02T01:18:48;9.35;;;6.55;;
74632;SDS011;63139;52.018;8.552;2024-03-02T01:21:16;8.90;;;6.50;;
74632;SDS011;63139;52.018;8.552;2024-03-02T01:23:44;10.73;;;6.97;;
74632;SDS011;63139;52.018;8.552;2024-03-02T01:26:12;8.43;;;6.47;;
74632;SDS011;63139;52.018;8.552;2024-03-02T01:28:40;10.38;;;6.75;;
74632;SDS011;63139;52.018;8.552;2024-03-02T01:31:08;8.27;;;6.15;;
74632;SDS011;63139;52.018;8.552;2024-03-02T01:33:36;9.88;;;7.05;;
74632;SDS011;63139;52.018;8.552;2024-03-02T01:36:06;9.77;;;6.82;;
74632;SDS011;63139;52.018;8.552;2024-03-02T01:38:35;10.07;;;7.18;;
74632;SDS011;63139;52.018;8.552;2024-03-02T01:41:03;10.60;;;6.75;;
74632;SDS011;63139;52.018;8.552;2024-03-02T01:43:31;9.85;;;6.70;;
74632;SDS011;63139;52.018;8.552;2024-03-02T01:45:59;10.75;;;7.30;;
74632;SDS011;63139;52.018;8.552;2024-03-02T01:48:26;10.27;;;6.97;;
74632;SDS011;63139;52.018;8.552;2024-03-02T01:50:55;8.57;;;6.00;;
74632;SDS011;63139;52.018;8.552;2024-03-02T01:53:25;10.43;;;7.00;;
74632;SDS011;63139;52.018;8.552;2024-03-02T01:55:53;11.27;;;6.60;;
74632;SDS011;63139;52.018;8.552;2024-03-02T01:58:21;9.20;;;6.85;;
74632;SDS011;63139;52.018;8.552;2024-03-02T02:00:49;10.43;;;6.70;;
74632;SDS011;63139;52.018;8.552;2024-03-02T02:03:18;9.23;;;6.65;;
74632;SDS011;63139;52.018;8.552;2024-03-02T02:05:46;9.95;;;6.15;;
74632;SDS011;63139;52.018;8.552;2024-03-02T02:08:14;9.63;;;6.30;;
74632;SDS011;63139;52.018;8.552;2024-03-02T02:10:44;9.20;;;6.43;;
74632;SDS011;63139;52.018;8.552;2024-03-02T02:13:13;9.32;;;6.55;;
74632;SDS011;63139;52.018;8.552;2024-03-02T02:15:41;10.68;;;6.93;;
74632;SDS011;63139;52.018;8.552;2024-03-02T02:18:10;8.52;;;5.90;;
74632;SDS011;63139;52.018;8.552;2024-03-02T02:20:38;8.57;;;5.72;;
74632;SDS011;63139;52.018;8.552;2024-03-02T02:23:07;9.10;;;6.18;;
74632;SDS011;63139;52.018;8.552;2024-03-02T02:25:36;8.80;;;6.22;;
74632;SDS011;63139;52.018;8.552;2024-03-02T02:28:05;10.15;;;6.70;;
74632;SDS011;63139;52.018;8.552;2024-03-02T02:30:33;8.73;;;6.03;;
74632;SDS011;63139;52.018;8.552;2024-03-02T02:33:01;10.45;;;6.20;;
74632;SDS011;63139;52.018;8.552;2024-03-02T02:35:29;9.15;;;5.93;;
74632;SDS011;63139;52.018;8.552;2024-03-02T02:37:58;8.27;;;5.88;;
74632;SDS011;63139;52.018;8.552;2024-03-02T02:40:27;7.85;;;6.03;;
74632;SDS011;63139;52.018;8.552;2024-03-02T02:42:57;9.02;;;5.72;;
74632;SDS011;63139;52.018;8.552;2024-03-02T02:45:26;9.60;;;6.78;;
74632;SDS011;63139;52.018;8.552;2024-03-02T02:47:54;8.18;;;5.97;;
74632;SDS011;63139;52.018;8.552;2024-03-02T02:50:22;8.20;;;6.00;;
74632;SDS011;63139;52.018;8.552;2024-03-02T02:52:50;9.82;;;6.28;;
74632;SDS011;63139;52.018;8.552;2024-03-02T02:55:18;8.88;;;6.00;;
74632;SDS011;63139;52.018;8.552;2024-03-02T02:57:48;10.02;;;6.95;;
74632;SDS011;63139;52.018;8.552;2024-03-02T03:00:16;8.93;;;6.40;;
74632;SDS011;63139;52.018;8.552;2024-03-02T03:02:47;8.73;;;6.50;;
74632;SDS011;63139;52.018;8.552;2024-03-02T03:05:17;10.23;;;6.78;;
74632;SDS011;63139;52.018;8.552;2024-03-02T03:07:45;10.25;;;6.63;;
74632;SDS011;63139;52.018;8.552;2024-03-02T03:10:16;8.65;;;6.18;;
74632;SDS011;63139;52.018;8.552;2024-03-02T03:12:45;8.98;;;6.25;;
74632;SDS011;63139;52.018;8.552;2024-03-02T03:15:15;10.45;;;7.10;;
74632;SDS011;63139;52.018;8.552;2024-03-02T03:17:43;10.68;;;7.18;;
74632;SDS011;63139;52.018;8.552;2024-03-02T03:20:14;10.18;;;7.07;;
74632;SDS011;63139;52.018;8.552;2024-03-02T03:22:42;11.43;;;7.88;;
74632;SDS011;63139;52.018;8.552;2024-03-02T03:25:10;10.15;;;7.70;;
74632;SDS011;63139;52.018;8.552;2024-03-02T03:27:39;12.35;;;8.63;;
74632;SDS011;63139;52.018;8.552;2024-03-02T03:30:08;12.20;;;8.73;;
74632;SDS011;63139;52.018;8.552;2024-03-02T03:32:38;12.50;;;8.23;;
74632;SDS011;63139;52.018;8.552;2024-03-02T03:35:07;12.05;;;8.77;;
74632;SDS011;63139;52.018;8.552;2024-03-02T03:37:36;10.18;;;6.72;;
74632;SDS011;63139;52.018;8.552;2024-03-02T03:40:04;13.05;;;8.70;;
74632;SDS011;63139;52.018;8.552;2024-03-02T03:42:36;10.38;;;7.38;;
74632;SDS011;63139;52.018;8.552;2024-03-02T03:45:05;11.43;;;7.40;;
74632;SDS011;63139;52.018;8.552;2024-03-02T03:47:34;12.05;;;8.15;;
74632;SDS011;63139;52.018;8.552;2024-03-02T03:50:04;12.90;;;8.48;;
74632;SDS011;63139;52.018;8.552;2024-03-02T03:52:34;11.45;;;7.35;;
74632;SDS011;63139;52.018;8.552;2024-03-02T03:55:02;12.13;;;8.27;;
74632;SDS011;63139;52.018;8.552;2024-03-02T03:57:32;17.83;;;8.82;;
74632;SDS011;63139;52.018;8.552;2024-03-02T04:00:00;13.13;;;9.02;;
74632;SDS011;63139;52.018;8.552;2024-03-02T04:02:37;13.00;;;8.95;;
74632;SDS011;63139;52.018;8.552;2024-03-02T04:05:07;13.52;;;8.30;;
74632;SDS011;63139;52.018;8.552;2024-03-02T04:07:38;14.05;;;8.70;;
74632;SDS011;63139;52.018;8.552;2024-03-02T04:10:07;13.35;;;8.48;;
74632;SDS011;63139;52.018;8.552;2024-03-02T04:12:36;12.63;;;8.65;;
74632;SDS011;63139;52.018;8.552;2024-03-02T04:15:05;15.82;;;9.23;;
74632;SDS011;63139;52.018;8.552;2024-03-02T04:17:33;14.45;;;9.90;;
74632;SDS011;63139;52.018;8.552;2024-03-02T04:20:02;15.35;;;9.60;;
74632;SDS011;63139;52.018;8.552;2024-03-02T04:22:34;13.35;;;9.15;;
74632;SDS011;63139;52.018;8.552;2024-03-02T04:25:02;18.23;;;10.13;;
74632;SDS011;63139;52.018;8.552;2024-03-02T04:27:33;14.25;;;9.40;;
74632;SDS011;63139;52.018;8.552;2024-03-02T04:30:01;14.60;;;9.60;;
74632;SDS011;63139;52.018;8.552;2024-03-02T04:32:31;13.70;;;9.50;;
74632;SDS011;63139;52.018;8.552;2024-03-02T04:34:59;15.80;;;9.45;;
74632;SDS011;63139;52.018;8.552;2024-03-02T04:37:27;14.45;;;9.15;;
74632;SDS011;63139;52.018;8.552;2024-03-02T04:39:56;14.57;;;9.40;;
74632;SDS011;63139;52.018;8.552;2024-03-02T04:42:24;14.00;;;9.38;;
74632;SDS011;63139;52.018;8.552;2024-03-02T04:44:52;14.15;;;8.40;;
74632;SDS011;63139;52.018;8.552;2024-03-02T04:47:20;12.73;;;8.85;;
74632;SDS011;63139;52.018;8.552;2024-03-02T04:49:49;15.82;;;9.27;;
74632;SDS011;63139;52.018;8.552;2024-03-02T04:52:16;13.85;;;9.23;;
74632;SDS011;63139;52.018;8.552;2024-03-02T04:54:45;14.38;;;9.43;;
74632;SDS011;63139;52.018;8.552;2024-03-02T04:57:32;14.20;;;8.40;;
74632;SDS011;63139;52.018;8.552;2024-03-02T05:00:00;14.85;;;9.48;;
74632;SDS011;63139;52.018;8.552;2024-03-02T05:02:28;15.38;;;9.32;;
74632;SDS011;63139;52.018;8.552;2024-03-02T05:04:56;14.50;;;9.18;;
74632;SDS011;63139;52.018;8.552;2024-03-02T05:07:24;15.65;;;10.38;;
74632;SDS011;63139;52.018;8.552;2024-03-02T05:09:53;15.65;;;9.88;;
74632;SDS011;63139;52.018;8.552;2024-03-02T05:12:21;16.35;;;10.48;;
74632;SDS011;63139;52.018;8.552;2024-03-02T05:15:15;19.60;;;11.27;;
74632;SDS011;63139;52.018;8.552;2024-03-02T05:17:43;16.88;;;10.38;;
74632;SDS011;63139;52.018;8.552;2024-03-02T05:20:11;18.33;;;10.65;;
74632;SDS011;63139;52.018;8.552;2024-03-02T05:22:39;17.50;;;11.32;;
74632;SDS011;63139;52.018;8.552;2024-03-02T05:25:07;24.15;;;11.63;;
74632;SDS011;63139;52.018;8.552;2024-03-02T05:27:36;15.00;;;9.50;;
74632;SDS011;63139;52.018;8.552;2024-03-02T05:30:04;15.85;;;9.40;;
74632;SDS011;63139;52.018;8.552;2024-03-02T05:32:35;16.95;;;10.50;;
74632;SDS011;63139;52.018;8.552;2024-03-02T05:35:04;14.48;;;9.73;;
74632;SDS011;63139;52.018;8.552;2024-03-02T05:37:32;17.42;;;10.15;;
74632;SDS011;63139;52.018;8.552;2024-03-02T05:40:00;19.27;;;11.75;;
74632;SDS011;63139;52.018;8.552;2024-03-02T05:42:29;17.45;;;10.55;;
74632;SDS011;63139;52.018;8.552;2024-03-02T05:44:57;16.77;;;10.50;;
74632;SDS011;63139;52.018;8.552;2024-03-02T05:47:25;18.65;;;10.90;;
74632;SDS011;63139;52.018;8.552;2024-03-02T05:49:55;16.02;;;9.70;;
74632;SDS011;63139;52.018;8.552;2024-03-02T05:52:23;19.33;;;11.00;;
74632;SDS011;63139;52.018;8.552;2024-03-02T05:54:51;13.65;;;9.25;;
74632;SDS011;63139;52.018;8.552;2024-03-02T05:57:20;16.25;;;9.77;;
74632;SDS011;63139;52.018;8.552;2024-03-02T06:00:03;16.30;;;10.30;;
74632;SDS011;63139;52.018;8.552;2024-03-02T06:02:38;17.50;;;9.90;;
74632;SDS011;63139;52.018;8.552;2024-03-02T06:05:09;16.70;;;9.98;;
74632;SDS011;63139;52.018;8.552;2024-03-02T06:07:37;15.60;;;10.20;;
74632;SDS011;63139;52.018;8.552;2024-03-02T06:10:05;16.73;;;9.38;;
74632;SDS011;63139;52.018;8.552;2024-03-02T06:12:39;18.42;;;10.48;;
74632;SDS011;63139;52.018;8.552;2024-03-02T06:15:08;15.05;;;9.70;;
74632;SDS011;63139;52.018;8.552;2024-03-02T06:17:36;17.23;;;9.98;;
74632;SDS011;63139;52.018;8.552;2024-03-02T06:20:05;17.60;;;10.85;;
74632;SDS011;63139;52.018;8.552;2024-03-02T06:22:36;15.45;;;9.43;;
74632;SDS011;63139;52.018;8.552;2024-03-02T06:25:04;17.52;;;10.70;;
74632;SDS011;63139;52.018;8.552;2024-03-02T06:27:33;16.92;;;9.68;;
74632;SDS011;63139;52.018;8.552;2024-03-02T06:30:03;17.77;;;11.15;;
74632;SDS011;63139;52.018;8.552;2024-03-02T06:32:32;19.25;;;10.35;;
74632;SDS011;63139;52.018;8.552;2024-03-02T06:35:02;17.20;;;9.80;;
74632;SDS011;63139;52.018;8.552;2024-03-02T06:37:31;17.05;;;11.25;;
74632;SDS011;63139;52.018;8.552;2024-03-02T06:40:00;15.88;;;9.55;;
74632;SDS011;63139;52.018;8.552;2024-03-02T06:42:29;16.23;;;9.40;;
74632;SDS011;63139;52.018;8.552;2024-03-02T06:45:00;18.67;;;10.18;;
74632;SDS011;63139;52.018;8.552;2024-03-02T06:47:28;17.08;;;10.27;;
74632;SDS011;63139;52.018;8.552;2024-03-02T06:49:56;15.65;;;9.45;;
74632;SDS011;63139;52.018;8.552;2024-03-02T06:52:25;15.50;;;9.75;;
74632;SDS011;63139;52.018;8.552;2024-03-02T06:54:53;16.27;;;9.93;;
74632;SDS011;63139;52.018;8.552;2024-03-02T06:57:22;17.45;;;10.02;;
74632;SDS011;63139;52.018;8.552;2024-03-02T06:59:51;16.90;;;10.35;;
74632;SDS011;63139;52.018;8.552;2024-03-02T07:02:21;18.52;;;10.77;;
74632;SDS011;63139;52.018;8.552;2024-03-02T07:04:49;18.17;;;10.68;;
74632;SDS011;63139;52.018;8.552;2024-03-02T07:07:21;17.55;;;10.25;;
74632;SDS011;63139;52.018;8.552;2024-03-02T07:09:49;18.02;;;10.68;;
74632;SDS011;63139;52.018;8.552;2024-03-02T07:12:18;19.02;;;11.60;;
74632;SDS011;63139;52.018;8.552;2024-03-02T07:14:47;16.85;;;10.80;;
74632;SDS011;63139;52.018;8.552;2024-03-02T07:17:37;15.48;;;9.90;;
74632;SDS011;63139;52.018;8.552;2024-03-02T07:20:05;19.83;;;10.30;;
74632;SDS011;63139;52.018;8.552;2024-03-02T07:22:34;18.13;;;10.30;;
74632;SDS011;63139;52.018;8.552;2024-03-02T07:25:06;17.95;;;11.20;;
74632;SDS011;63139;52.018;8.552;2024-03-02T07:27:55;16.75;;;10.32;;
74632;SDS011;63139;52.018;8.552;2024-03-02T07:30:25;17.88;;;9.95;;
74632;SDS011;63139;52.018;8.552;2024-03-02T07:32:55;16.98;;;10.80;;
74632;SDS011;63139;52.018;8.552;2024-03-02T07:35:23;17.75;;;11.05;;
74632;SDS011;63139;52.018;8.552;2024-03-02T07:37:54;19.60;;;11.00;;
74632;SDS011;63139;52.018;8.552;2024-03-02T07:40:23;18.48;;;10.65;;
74632;SDS011;63139;52.018;8.552;2024-03-02T07:42:51;17.55;;;10.25;;
74632;SDS011;63139;52.018;8.552;2024-03-02T07:45:19;17.50;;;10.68;;
74632;SDS011;63139;52.018;8.552;2024-03-02T07:47:49;14.52;;;9.57;;
74632;SDS011;63139;52.018;8.552;2024-03-02T07:50:18;14.55;;;9.05;;
74632;SDS011;63139;52.018;8.552;2024-03-02T07:52:46;16.05;;;10.23;;
74632;SDS011;63139;52.018;8.552;2024-03-02T07:55:15;18.63;;;10.27;;
74632;SDS011;63139;52.018;8.552;2024-03-02T07:57:44;16.98;;;10.30;;
74632;SDS011;63139;52.018;8.552;2024-03-02T08:00:12;15.55;;;9.70;;
74632;SDS011;63139;52.018;8.552;2024-03-02T08:02:41;18.77;;;10.98;;
74632;SDS011;63139;52.018;8.552;2024-03-02T08:05:11;18.25;;;9.73;;
74632;SDS011;63139;52.018;8.552;2024-03-02T08:07:39;14.73;;;9.18;;
74632;SDS011;63139;52.018;8.552;2024-03-02T08:10:07;16.85;;;9.90;;
74632;SDS011;63139;52.018;8.552;2024-03-02T08:12:36;14.60;;;9.40;;
74632;SDS011;63139;52.018;8.552;2024-03-02T08:15:05;14.63;;;9.00;;
74632;SDS011;63139;52.018;8.552;2024-03-02T08:17:33;13.13;;;8.70;;
74632;SDS011;63139;52.018;8.552;2024-03-02T08:20:04;14.68;;;8.88;;
74632;SDS011;63139;52.018;8.552;2024-03-02T08:22:37;14.45;;;9.13;;
74632;SDS011;63139;52.018;8.552;2024-03-02T08:25:06;13.75;;;8.85;;
74632;SDS011;63139;52.018;8.552;2024-03-02T08:27:36;14.18;;;8.70;;
74632;SDS011;63139;52.018;8.552;2024-03-02T08:30:05;12.80;;;8.65;;
74632;SDS011;63139;52.018;8.552;2024-03-02T08:32:35;14.02;;;8.30;;
74632;SDS011;63139;52.018;8.552;2024-03-02T08:35:03;12.30;;;8.27;;
74632;SDS011;63139;52.018;8.552;2024-03-02T08:37:33;16.33;;;8.63;;
74632;SDS011;63139;52.018;8.552;2024-03-02T08:40:04;13.27;;;7.90;;
74632;SDS011;63139;52.018;8.552;2024-03-02T08:42:35;11.80;;;7.78;;
74632;SDS011;63139;52.018;8.552;2024-03-02T08:45:03;12.25;;;7.60;;
74632;SDS011;63139;52.018;8.552;2024-03-02T08:47:32;10.18;;;7.25;;
74632;SDS011;63139;52.018;8.552;2024-03-02T08:50:00;9.20;;;6.30;;
74632;SDS011;63139;52.018;8.552;2024-03-02T08:52:28;10.60;;;7.25;;
74632;SDS011;63139;52.018;8.552;2024-03-02T08:54:56;11.18;;;6.78;;
74632;SDS011;63139;52.018;8.552;2024-03-02T08:57:26;9.95;;;6.72;;
74632;SDS011;63139;52.018;8.552;2024-03-02T08:59:54;10.90;;;6.68;;
74632;SDS011;63139;52.018;8.552;2024-03-02T09:02:22;10.45;;;6.80;;
74632;SDS011;63139;52.018;8.552;2024-03-02T09:04:51;10.00;;;6.65;;
74632;SDS011;63139;52.018;8.552;2024-03-02T09:07:19;10.73;;;6.68;;
74632;SDS011;63139;52.018;8.552;2024-03-02T09:09:47;11.98;;;6.97;;
74632;SDS011;63139;52.018;8.552;2024-03-02T09:12:15;11.13;;;7.20;;
74632;SDS011;63139;52.018;8.552;2024-03-02T09:14:45;9.75;;;6.70;;
74632;SDS011;63139;52.018;8.552;2024-03-02T09:17:14;11.20;;;6.68;;
74632;SDS011;63139;52.018;8.552;2024-03-02T09:19:42;9.68;;;6.45;;
74632;SDS011;63139;52.018;8.552;2024-03-02T09:22:10;8.85;;;6.05;;
74632;SDS011;63139;52.018;8.552;2024-03-02T09:24:40;9.80;;;6.25;;
74632;SDS011;63139;52.018;8.552;2024-03-02T09:27:08;7.57;;;5.28;;
74632;SDS011;63139;52.018;8.552;2024-03-02T09:29:36;8.15;;;5.72;;
74632;SDS011;63139;52.018;8.552;2024-03-02T09:32:06;5.60;;;4.28;;
74632;SDS011;63139;52.018;8.552;2024-03-02T09:34:35;7.00;;;4.30;;
74632;SDS011;63139;52.018;8.552;2024-03-02T09:37:03;6.88;;;4.90;;
74632;SDS011;63139;52.018;8.552;2024-03-02T09:39:31;8.25;;;4.80;;
74632;SDS011;63139;52.018;8.552;2024-03-02T09:42:00;6.30;;;4.40;;
74632;SDS011;63139;52.018;8.552;2024-03-02T09:44:28;7.32;;;4.60;;
74632;SDS011;63139;52.018;8.552;2024-03-02T09:46:55;8.77;;;5.30;;
74632;SDS011;63139;52.018;8.552;2024-03-02T09:49:26;7.78;;;5.35;;
74632;SDS011;63139;52.018;8.552;2024-03-02T09:51:54;8.05;;;5.28;;
74632;SDS011;63139;52.018;8.552;2024-03-02T09:54:23;7.28;;;5.00;;
74632;SDS011;63139;52.018;8.552;2024-03-02T09:56:51;6.53;;;4.18;;
74632;SDS011;63139;52.018;8.552;2024-03-02T09:59:19;6.80;;;4.90;;
74632;SDS011;63139;52.018;8.552;2024-03-02T10:04:36;9.73;;;6.00;;
74632;SDS011;63139;52.018;8.552;2024-03-02T10:07:10;7.88;;;5.63;;
74632;SDS011;63139;52.018;8.552;2024-03-02T10:09:41;7.60;;;5.30;;
74632;SDS011;63139;52.018;8.552;2024-03-02T10:12:11;7.20;;;4.53;;
74632;SDS011;63139;52.018;8.552;2024-03-02T10:14:41;7.60;;;5.65;;
74632;SDS011;63139;52.018;8.552;2024-03-02T10:17:11;8.52;;;5.25;;
74632;SDS011;63139;52.018;8.552;2024-03-02T10:19:40;9.88;;;5.78;;
74632;SDS011;63139;52.018;8.552;2024-03-02T10:22:09;9.95;;;6.03;;
74632;SDS011;63139;52.018;8.552;2024-03-02T10:24:38;7.93;;;5.88;;
74632;SDS011;63139;52.018;8.552;2024-03-02T10:27:11;7.80;;;5.40;;
74632;SDS011;63139;52.018;8.552;2024-03-02T10:29:45;6.95;;;5.18;;
74632;SDS011;63139;52.018;8.552;2024-03-02T10:32:14;9.10;;;6.28;;
74632;SDS011;63139;52.018;8.552;2024-03-02T10:34:45;7.13;;;5.30;;
74632;SDS011;63139;52.018;8.552;2024-03-02T10:37:14;7.40;;;5.07;;
74632;SDS011;63139;52.018;8.552;2024-03-02T10:39:45;9.93;;;5.93;;
74632;SDS011;63139;52.018;8.552;2024-03-02T10:42:14;7.38;;;5.05;;
74632;SDS011;63139;52.018;8.552;2024-03-02T10:44:43;9.45;;;5.93;;
74632;SDS011;63139;52.018;8.552;2024-03-02T10:47:12;9.40;;;5.45;;
74632;SDS011;63139;52.018;8.552;2024-03-02T10:49:42;6.88;;;4.88;;
74632;SDS011;63139;52.018;8.552;2024-03-02T10:52:14;7.38;;;4.70;;
74632;SDS011;63139;52.018;8.552;2024-03-02T10:54:42;6.47;;;4.30;;
74632;SDS011;63139;52.018;8.552;2024-03-02T10:57:10;8.15;;;5.07;;
74632;SDS011;63139;52.018;8.552;2024-03-02T10:59:43;7.00;;;4.90;;
74632;SDS011;63139;52.018;8.552;2024-03-02T11:02:21;7.95;;;5.05;;
74632;SDS011;63139;52.018;8.552;2024-03-02T11:04:51;8.30;;;4.88;;
74632;SDS011;63139;52.018;8.552;2024-03-02T11:07:23;8.40;;;4.65;;
74632;SDS011;63139;52.018;8.552;2024-03-02T11:09:54;6.25;;;4.25;;
74632;SDS011;63139;52.018;8.552;2024-03-02T11:12:28;6.22;;;4.82;;
74632;SDS011;63139;52.018;8.552;2024-03-02T11:14:57;4.70;;;3.80;;
74632;SDS011;63139;52.018;8.552;2024-03-02T11:17:26;5.65;;;4.10;;
74632;SDS011;63139;52.018;8.552;2024-03-02T11:19:56;6.80;;;4.43;;
74632;SDS011;63139;52.018;8.552;2024-03-02T11:22:25;5.07;;;3.90;;
74632;SDS011;63139;52.018;8.552;2024-03-02T11:24:55;5.25;;;4.05;;
74632;SDS011;63139;52.018;8.552;2024-03-02T11:33:24;6.65;;;4.30;;
74632;SDS011;63139;52.018;8.552;2024-03-02T11:36:00;6.10;;;4.20;;
74632;SDS011;63139;52.018;8.552;2024-03-02T11:38:31;7.00;;;4.35;;
74632;SDS011;63139;52.018;8.552;2024-03-02T11:41:01;6.13;;;4.38;;
74632;SDS011;63139;52.018;8.552;2024-03-02T11:43:33;6.40;;;4.55;;
74632;SDS011;63139;52.018;8.552;2024-03-02T11:46:05;5.50;;;4.20;;
74632;SDS011;63139;52.018;8.552;2024-03-02T11:48:35;5.20;;;4.05;;
74632;SDS011;63139;52.018;8.552;2024-03-02T11:51:06;6.80;;;4.68;;
74632;SDS011;63139;52.018;8.552;2024-03-02T11:53:35;6.53;;;4.60;;
74632;SDS011;63139;52.018;8.552;2024-03-02T11:56:06;7.78;;;5.57;;
74632;SDS011;63139;52.018;8.552;2024-03-02T11:58:38;6.22;;;4.43;;
74632;SDS011;63139;52.018;8.552;2024-03-02T12:01:08;6.65;;;4.50;;
74632;SDS011;63139;52.018;8.552;2024-03-02T12:03:37;6.20;;;4.53;;
74632;SDS011;63139;52.018;8.552;2024-03-02T12:06:07;7.95;;;4.30;;
74632;SDS011;63139;52.018;8.552;2024-03-02T12:08:35;5.75;;;4.35;;
74632;SDS011;63139;52.018;8.552;2024-03-02T12:11:04;6.70;;;4.40;;
74632;SDS011;63139;52.018;8.552;2024-03-02T12:13:33;7.30;;;4.50;;
74632;SDS011;63139;52.018;8.552;2024-03-02T12:16:01;5.30;;;4.10;;
74632;SDS011;63139;52.018;8.552;2024-03-02T12:18:30;5.32;;;4.10;;
74632;SDS011;63139;52.018;8.552;2024-03-02T12:20:58;6.05;;;4.13;;
74632;SDS011;63139;52.018;8.552;2024-03-02T12:23:33;6.25;;;4.28;;
74632;SDS011;63139;52.018;8.552;2024-03-02T12:26:02;6.53;;;4.57;;
74632;SDS011;63139;52.018;8.552;2024-03-02T12:28:30;5.15;;;4.00;;
74632;SDS011;63139;52.018;8.552;2024-03-02T12:31:00;4.95;;;4.10;;
74632;SDS011;63139;52.018;8.552;2024-03-02T12:33:29;6.60;;;3.85;;
74632;SDS011;63139;52.018;8.552;2024-03-02T12:35:59;5.47;;;3.97;;
74632;SDS011;63139;52.018;8.552;2024-03-02T12:38:28;5.63;;;4.13;;
74632;SDS011;63139;52.018;8.552;2024-03-02T12:40:57;6.50;;;4.50;;
74632;SDS011;63139;52.018;8.552;2024-03-02T12:43:29;6.50;;;4.38;;
74632;SDS011;63139;52.018;8.552;2024-03-02T12:45:58;6.20;;;4.90;;
74632;SDS011;63139;52.018;8.552;2024-03-02T12:48:26;6.93;;;4.30;;
74632;SDS011;63139;52.018;8.552;2024-03-02T12:50:54;4.78;;;3.65;;
74632;SDS011;63139;52.018;8.552;2024-03-02T12:53:23;6.53;;;4.15;;
74632;SDS011;63139;52.018;8.552;2024-03-02T12:55:55;5.22;;;3.67;;
74632;SDS011;63139;52.018;8.552;2024-03-02T12:58:24;5.47;;;4.20;;
74632;SDS011;63139;52.018;8.552;2024-03-02T13:01:05;4.65;;;3.80;;
74632;SDS011;63139;52.018;8.552;2024-03-02T13:03:35;5.85;;;4.00;;
74632;SDS011;63139;52.018;8.552;2024-03-02T13:06:06;6.95;;;4.50;;
74632;SDS011;63139;52.018;8.552;2024-03-02T13:08:35;6.03;;;3.78;;
74632;SDS011;63139;52.018;8.552;2024-03-02T13:11:03;5.13;;;3.90;;
74632;SDS011;63139;52.018;8.552;2024-03-02T13:13:34;5.13;;;4.07;;
74632;SDS011;63139;52.018;8.552;2024-03-02T13:16:05;5.57;;;3.30;;
74632;SDS011;63139;52.018;8.552;2024-03-02T13:18:36;3.75;;;3.40;;
74632;SDS011;63139;52.018;8.552;2024-03-02T13:21:07;4.50;;;3.33;;
74632;SDS011;63139;52.018;8.552;2024-03-02T13:23:35;3.92;;;3.10;;
74632;SDS011;63139;52.018;8.552;2024-03-02T13:26:03;4.18;;;3.30;;
74632;SDS011;63139;52.018;8.552;2024-03-02T13:28:32;4.55;;;3.22;;
74632;SDS011;63139;52.018;8.552;2024-03-02T13:31:01;5.40;;;2.72;;
74632;SDS011;63139;52.018;8.552;2024-03-02T13:33:30;6.03;;;3.60;;
74632;SDS011;63139;52.018;8.552;2024-03-02T13:35:59;4.93;;;2.97;;
74632;SDS011;63139;52.018;8.552;2024-03-02T13:38:28;4.00;;;3.20;;
74632;SDS011;63139;52.018;8.552;2024-03-02T13:40:56;4.05;;;3.17;;
74632;SDS011;63139;52.018;8.552;2024-03-02T13:43:23;4.97;;;3.65;;
74632;SDS011;63139;52.018;8.552;2024-03-02T13:45:53;3.83;;;3.13;;
74632;SDS011;63139;52.018;8.552;2024-03-02T13:48:21;4.13;;;2.78;;
74632;SDS011;63139;52.018;8.552;2024-03-02T13:50:49;3.13;;;2.40;;
74632;SDS011;63139;52.018;8.552;2024-03-02T13:53:17;3.22;;;2.60;;
74632;SDS011;63139;52.018;8.552;2024-03-02T13:55:45;5.40;;;2.65;;
74632;SDS011;63139;52.018;8.552;2024-03-02T13:58:13;4.13;;;2.58;;
74632;SDS011;63139;52.018;8.552;2024-03-02T14:00:42;3.10;;;2.17;;
74632;SDS011;63139;52.018;8.552;2024-03-02T14:03:14;3.28;;;2.65;;
74632;SDS011;63139;52.018;8.552;2024-03-02T14:05:43;3.17;;;2.55;;
74632;SDS011;63139;52.018;8.552;2024-03-02T14:08:12;3.63;;;2.50;;
74632;SDS011;63139;52.018;8.552;2024-03-02T14:10:40;3.60;;;2.80;;
74632;SDS011;63139;52.018;8.552;2024-03-02T14:13:09;4.22;;;2.20;;
74632;SDS011;63139;52.018;8.552;2024-03-02T14:15:38;3.20;;;2.53;;
74632;SDS011;63139;52.018;8.552;2024-03-02T14:18:06;2.92;;;2.20;;
74632;SDS011;63139;52.018;8.552;2024-03-02T14:20:37;2.13;;;1.90;;
74632;SDS011;63139;52.018;8.552;2024-03-02T14:23:08;3.13;;;2.25;;
74632;SDS011;63139;52.018;8.552;2024-03-02T14:25:38;3.95;;;2.28;;
74632;SDS011;63139;52.018;8.552;2024-03-02T14:28:07;3.85;;;2.00;;
74632;SDS011;63139;52.018;8.552;2024-03-02T14:30:55;3.88;;;2.20;;
74632;SDS011;63139;52.018;8.552;2024-03-02T14:33:23;3.17;;;2.10;;
74632;SDS011;63139;52.018;8.552;2024-03-02T14:35:53;3.97;;;2.47;;
74632;SDS011;63139;52.018;8.552;2024-03-02T14:38:21;3.75;;;2.08;;
74632;SDS011;63139;52.018;8.552;2024-03-02T14:40:50;2.95;;;2.30;;
74632;SDS011;63139;52.018;8.552;2024-03-02T14:43:20;3.63;;;2.17;;
74632;SDS011;63139;52.018;8.552;2024-03-02T14:45:48;3.13;;;1.98;;
74632;SDS011;63139;52.018;8.552;2024-03-02T14:48:17;4.22;;;2.10;;
74632;SDS011;63139;52.018;8.552;2024-03-02T14:50:45;3.63;;;2.10;;
74632;SDS011;63139;52.018;8.552;2024-03-02T14:53:15;2.97;;;1.90;;
74632;SDS011;63139;52.018;8.552;2024-03-02T14:55:44;2.28;;;1.80;;
74632;SDS011;63139;52.018;8.552;2024-03-02T14:58:12;3.13;;;2.25;;
74632;SDS011;63139;52.018;8.552;2024-03-02T15:00:40;2.83;;;2.17;;
74632;SDS011;63139;52.018;8.552;2024-03-02T15:03:09;2.08;;;1.70;;
74632;SDS011;63139;52.018;8.552;2024-03-02T15:05:38;2.80;;;1.92;;